Time;durP1;ratioP1;P1;durP2;ratioP2;P2;SDS_P1;SDS_P2;PMS_P1;PMS_P2;Temp;Humidity;BMP_temperature;BMP_pressure;BME280_temperature;BME280_humidity;BME280_pressure;Samples;Min_cycle;Max_cycle;Signal;HPM_P1;HPM_P2
2021/04/12 00:02:37;;;;;;;2.60;2.40;;;4.70;99.90;;;;;;5046961;28;20021;-73
2021/04/12 00:05:17;;;;;;;4.10;2.60;;;4.60;99.90;;;;;;5045014;28;20044;-73
2021/04/12 00:08:10;;;;;;;2.80;2.60;;;4.40;99.90;;;;;;5040996;28;20025;-73
2021/04/12 00:10:47;;;;;;;3.10;2.90;;;4.20;99.90;;;;;;5034149;28;20387;-72
2021/04/12 00:13:40;;;;;;;2.83;2.63;;;4.30;99.90;;;;;;5038482;28;20021;-73
2021/04/12 00:16:34;;;;;;;3.00;2.80;;;4.10;99.90;;;;;;5049048;28;20037;-73
2021/04/12 00:19:23;;;;;;;2.97;2.78;;;4.30;99.90;;;;;;5039296;28;20061;-72
2021/04/12 00:22:31;;;;;;;2.90;2.70;;;4.20;99.90;;;;;;5031279;28;20029;-72
2021/04/12 00:24:59;;;;;;;3.13;2.92;;;4.00;99.90;;;;;;4982920;28;20615;-72
2021/04/12 00:27:41;;;;;;;3.22;3.03;;;4.20;99.90;;;;;;4981695;28;20042;-73
2021/04/12 00:30:15;;;;;;;3.00;2.80;;;4.30;99.90;;;;;;5019083;28;20033;-73
2021/04/12 00:32:45;;;;;;;3.42;3.22;;;3.90;99.90;;;;;;5039015;28;20021;-73
2021/04/12 00:35:33;;;;;;;3.38;3.15;;;3.80;99.90;;;;;;5044485;28;20021;-72
2021/04/12 00:38:19;;;;;;;3.10;2.80;;;3.70;99.90;;;;;;5047497;28;20021;-71
2021/04/12 00:41:06;;;;;;;3.15;2.95;;;3.80;99.90;;;;;;5038835;28;20154;-73
2021/04/12 00:43:41;;;;;;;3.90;3.60;;;3.60;99.90;;;;;;5029569;28;20037;-72
2021/04/12 00:46:34;;;;;;;3.33;3.13;;;3.70;99.90;;;;;;5043514;28;20021;-72
2021/04/12 00:49:25;;;;;;;4.03;3.63;;;3.60;99.90;;;;;;5043952;28;20025;-73
2021/04/12 00:51:59;;;;;;;3.72;3.42;;;3.50;99.90;;;;;;5045527;28;20484;-73
2021/04/12 00:55:12;;;;;;;3.38;3.08;;;3.40;99.90;;;;;;5047654;28;20032;-73
2021/04/12 00:58:29;;;;;;;4.00;3.70;;;3.20;99.90;;;;;;5023125;28;20036;-73
2021/04/12 01:01:00;;;;;;;4.63;4.23;;;3.20;99.90;;;;;;4977166;28;20026;-73
2021/04/12 01:03:30;;;;;;;4.90;4.50;;;3.10;99.90;;;;;;4978508;28;20042;-73
2021/04/12 01:06:28;;;;;;;4.30;4.00;;;3.00;99.90;;;;;;5029021;28;20120;-73
2021/04/12 01:09:12;;;;;;;4.03;3.72;;;3.20;99.90;;;;;;5019284;28;20040;-73
2021/04/12 01:12:04;;;;;;;4.60;4.20;;;3.10;99.90;;;;;;5036048;28;20411;-73
2021/04/12 01:15:02;;;;;;;4.70;4.32;;;2.90;99.90;;;;;;5040139;28;20039;-73
2021/04/12 01:17:45;;;;;;;5.00;4.60;;;2.80;99.90;;;;;;5041822;28;20036;-72
2021/04/12 01:20:48;;;;;;;5.28;4.88;;;2.70;99.90;;;;;;5032166;28;20388;-72
2021/04/12 01:23:22;;;;;;;5.38;4.97;;;2.60;99.90;;;;;;5031801;28;20587;-72
2021/04/12 01:26:12;;;;;;;5.32;4.93;;;2.60;99.90;;;;;;5031821;28;20021;-71
2021/04/12 01:29:28;;;;;;;5.20;4.80;;;2.80;99.90;;;;;;5031898;28;20022;-71
2021/04/12 01:32:12;;;;;;;5.20;4.80;;;2.90;99.90;;;;;;5032038;28;20067;-72
2021/04/12 01:35:00;;;;;;;3.85;3.55;;;2.90;99.90;;;;;;5030483;28;20117;-72
2021/04/12 01:37:47;;;;;;;4.40;4.10;;;2.90;99.90;;;;;;5045158;28;20026;-72
2021/04/12 01:40:28;;;;;;;3.33;3.13;;;2.60;99.90;;;;;;5018767;28;20045;-72
2021/04/12 01:43:33;;;;;;;4.68;4.38;;;2.60;99.90;;;;;;5042932;28;20109;-72
2021/04/12 01:46:18;;;;;;;4.82;4.50;;;2.70;99.90;;;;;;5020270;28;20037;-72
2021/04/12 01:49:12;;;;;;;4.07;3.77;;;2.70;99.90;;;;;;5045143;28;20422;-70
2021/04/12 01:51:43;;;;;;;4.30;4.00;;;2.80;99.90;;;;;;5031536;28;20111;-72
2021/04/12 01:54:16;;;;;;;4.40;4.10;;;2.90;99.90;;;;;;5021121;28;20032;-72
2021/04/12 01:56:49;;;;;;;3.90;3.60;;;2.80;99.90;;;;;;5025378;28;20022;-72
2021/04/12 01:59:47;;;;;;;5.20;4.80;;;2.80;99.90;;;;;;5036241;28;20087;-70
2021/04/12 02:02:44;;;;;;;4.75;4.45;;;2.80;99.90;;;;;;5021621;28;20029;-72
2021/04/12 02:05:50;;;;;;;4.85;4.45;;;2.70;99.90;;;;;;5023744;28;20045;-72
2021/04/12 02:08:28;;;;;;;5.20;4.90;;;2.70;99.90;;;;;;5014827;28;20042;-72
2021/04/12 02:11:13;;;;;;;4.75;4.43;;;2.80;99.90;;;;;;5025192;28;20034;-72
2021/04/12 02:14:05;;;;;;;5.85;5.32;;;2.80;99.90;;;;;;5031293;28;20046;-72
2021/04/12 02:16:45;;;;;;;6.50;6.00;;;2.60;99.90;;;;;;5031568;28;20093;-72
2021/04/12 02:19:22;;;;;;;5.03;4.65;;;2.60;99.90;;;;;;5016870;28;20018;-72
2021/04/12 02:22:23;;;;;;;5.55;5.15;;;2.70;99.90;;;;;;5019227;28;20022;-73
2021/04/12 02:25:18;;;;;;;6.55;6.05;;;2.60;99.90;;;;;;5011563;28;20030;-73
2021/04/12 02:28:14;;;;;;;6.85;6.35;;;2.60;99.90;;;;;;5018401;28;20022;-72
2021/04/12 02:30:49;;;;;;;7.15;6.60;;;2.50;99.90;;;;;;5031390;28;20215;-71
2021/04/12 02:33:20;;;;;;;7.63;6.93;;;2.40;99.90;;;;;;5019568;28;20026;-72
2021/04/12 02:36:36;;;;;;;7.20;6.60;;;2.50;99.90;;;;;;5044593;28;20095;-71
2021/04/12 02:39:04;;;;;;;6.60;6.10;;;2.40;99.90;;;;;;5031353;28;20029;-71
2021/04/12 02:41:38;;;;;;;8.02;7.43;;;2.40;99.90;;;;;;5031359;28;20026;-71
2021/04/12 02:44:41;;;;;;;7.38;6.78;;;2.40;99.90;;;;;;5026471;28;20589;-73
2021/04/12 02:47:25;;;;;;;8.23;7.53;;;2.40;99.90;;;;;;5031668;28;20029;-73
2021/04/12 02:50:13;;;;;;;7.03;6.40;;;2.40;99.90;;;;;;5031157;28;20021;-72
2021/04/12 02:53:00;;;;;;;8.95;8.23;;;2.40;99.90;;;;;;5029762;28;20021;-72
2021/04/12 02:55:39;;;;;;;12.38;7.85;;;2.30;99.90;;;;;;5037003;28;20025;-72
2021/04/12 02:58:19;;;;;;;8.15;7.47;;;2.30;99.90;;;;;;5035170;28;20052;-72
2021/04/12 03:00:51;;;;;;;8.48;7.78;;;2.30;99.90;;;;;;5020268;28;20033;-72
2021/04/12 03:03:41;;;;;;;7.88;7.28;;;2.30;99.90;;;;;;5033055;28;20034;-72
2021/04/12 03:06:18;;;;;;;7.80;7.20;;;2.30;99.90;;;;;;5034565;28;20022;-72
2021/04/12 03:09:17;;;;;;;7.72;7.13;;;2.40;99.90;;;;;;5034608;28;20021;-72
2021/04/12 03:11:46;;;;;;;7.60;6.93;;;2.50;99.90;;;;;;5034441;28;20037;-72
2021/04/12 03:14:23;;;;;;;8.00;7.30;;;2.60;99.90;;;;;;5034135;28;20030;-73
2021/04/12 03:17:06;;;;;;;7.60;6.95;;;2.40;99.90;;;;;;5034530;28;20033;-73
2021/04/12 03:20:11;;;;;;;8.45;7.75;;;2.40;99.90;;;;;;5033301;28;20430;-73
2021/04/12 03:23:01;;;;;;;8.75;7.95;;;2.30;99.90;;;;;;5034098;28;20664;-73
2021/04/12 03:25:27;;;;;;;8.05;7.40;;;2.30;99.90;;;;;;5033909;28;20052;-73
2021/04/12 03:28:15;;;;;;;8.13;7.45;;;2.30;99.90;;;;;;5013232;28;20389;-73
2021/04/12 03:30:46;;;;;;;7.72;7.13;;;2.60;99.90;;;;;;5026575;28;20033;-73
2021/04/12 03:33:14;;;;;;;10.13;9.27;;;2.70;99.90;;;;;;5025313;28;20457;-73
2021/04/12 03:35:46;;;;;;;9.80;8.90;;;2.50;99.90;;;;;;5014849;28;20087;-73
2021/04/12 03:38:55;;;;;;;9.18;8.40;;;2.50;99.90;;;;;;5014412;28;20388;-73
2021/04/12 03:41:50;;;;;;;10.32;9.43;;;2.40;99.90;;;;;;5018655;28;20033;-73
2021/04/12 03:44:30;;;;;;;12.45;11.27;;;2.30;99.90;;;;;;5032449;28;20044;-72
2021/04/12 03:47:02;;;;;;;13.82;12.45;;;2.10;99.90;;;;;;5049185;28;20387;-73
2021/04/12 03:50:05;;;;;;;15.20;13.65;;;2.10;99.90;;;;;;5033932;28;20060;-71
2021/04/12 03:52:52;;;;;;;14.27;12.88;;;2.00;99.90;;;;;;5024397;28;20085;-72
2021/04/12 03:55:47;;;;;;;13.48;12.23;;;2.00;99.90;;;;;;5027400;28;20033;-72
2021/04/12 03:59:06;;;;;;;13.70;12.27;;;2.10;99.90;;;;;;5012811;28;20041;-72
2021/04/12 04:01:37;;;;;;;16.52;12.32;;;2.00;99.90;;;;;;5012735;28;20537;-72
2021/04/12 04:04:24;;;;;;;13.23;11.93;;;1.90;99.90;;;;;;5024861;28;20403;-69
2021/04/12 04:07:01;;;;;;;12.32;11.13;;;1.90;99.90;;;;;;5026218;28;20018;-74
2021/04/12 04:09:51;;;;;;;11.95;10.93;;;1.90;99.90;;;;;;5027128;28;20032;-71
2021/04/12 04:12:25;;;;;;;13.25;11.95;;;2.00;99.90;;;;;;5025762;28;20041;-71
2021/04/12 04:15:28;;;;;;;13.95;12.55;;;1.90;99.90;;;;;;5019384;28;20021;-71
2021/04/12 04:18:29;;;;;;;12.85;11.43;;;1.70;99.90;;;;;;5018817;28;20034;-72
2021/04/12 04:21:18;;;;;;;15.55;13.90;;;1.70;99.90;;;;;;5046729;28;20100;-70
2021/04/12 04:24:28;;;;;;;13.40;12.05;;;1.90;99.90;;;;;;5018327;28;20040;-73
2021/04/12 04:27:38;;;;;;;15.55;13.95;;;1.90;99.90;;;;;;5012358;28;20030;-70
2021/04/12 04:30:23;;;;;;;17.00;15.10;;;1.90;99.90;;;;;;5024763;28;20038;-70
2021/04/12 04:33:05;;;;;;;19.02;16.77;;;1.90;99.90;;;;;;5021001;28;20075;-73
2021/04/12 04:35:48;;;;;;;15.15;13.65;;;2.00;99.90;;;;;;5019465;28;20646;-70
2021/04/12 04:38:35;;;;;;;14.70;12.88;;;2.00;99.90;;;;;;5020579;28;20030;-73
2021/04/12 04:41:00;;;;;;;17.02;15.45;;;2.00;99.90;;;;;;5030303;28;20443;-73
2021/04/12 04:43:55;;;;;;;16.20;14.70;;;2.00;99.90;;;;;;5037618;28;20060;-73
2021/04/12 04:46:39;;;;;;;16.92;15.23;;;2.00;99.90;;;;;;5018368;28;20029;-70
2021/04/12 04:49:30;;;;;;;15.43;13.93;;;2.00;99.90;;;;;;5021805;28;20025;-70
2021/04/12 04:52:17;;;;;;;19.30;17.50;;;2.00;99.90;;;;;;5019332;28;20432;-70
2021/04/12 04:55:11;;;;;;;17.05;15.38;;;2.00;99.90;;;;;;5030944;28;20034;-72
2021/04/12 04:57:58;;;;;;;17.55;15.85;;;2.00;99.90;;;;;;5025042;28;20476;-72
2021/04/12 05:00:49;;;;;;;;;;;2.10;99.90;;;;;;5024566;28;20056;-74
2021/04/12 05:03:51;;;;;;;17.60;15.77;;;1.90;99.90;;;;;;5025539;28;19906;-73
2021/04/12 05:06:19;;;;;;;19.35;17.30;;;2.00;99.90;;;;;;5042792;28;20057;-73
2021/04/12 05:09:22;;;;;;;17.38;15.77;;;2.00;99.90;;;;;;5020937;28;20472;-73
2021/04/12 05:11:57;;;;;;;18.85;16.50;;;2.00;99.90;;;;;;5021252;28;20395;-73
2021/04/12 05:14:51;;;;;;;18.98;16.92;;;2.10;99.90;;;;;;5018728;28;20068;-73
2021/04/12 05:17:43;;;;;;;19.02;17.13;;;1.90;99.90;;;;;;5017997;28;20034;-72
2021/04/12 05:20:32;;;;;;;19.10;16.85;;;1.90;99.90;;;;;;5042088;28;20458;-72
2021/04/12 05:23:35;;;;;;;20.02;17.77;;;1.90;99.90;;;;;;5019642;28;20056;-73
2021/04/12 05:26:18;;;;;;;20.92;18.25;;;2.00;99.90;;;;;;5018612;28;20029;-73
2021/04/12 05:29:08;;;;;;;22.48;20.10;;;2.10;99.90;;;;;;5018787;28;20026;-73
2021/04/12 05:32:24;;;;;;;19.38;16.67;;;2.00;99.90;;;;;;5021186;28;20041;-70
2021/04/12 05:34:55;;;;;;;21.38;19.20;;;2.00;99.90;;;;;;5010400;28;20038;-70
2021/04/12 05:37:37;;;;;;;18.90;17.00;;;2.00;99.90;;;;;;5024280;28;20213;-71
2021/04/12 05:40:21;;;;;;;18.48;16.48;;;2.10;99.90;;;;;;5025925;28;20080;-71
2021/04/12 05:43:07;;;;;;;21.63;19.42;;;2.20;99.90;;;;;;5022676;28;20029;-70
2021/04/12 05:45:38;;;;;;;19.33;17.35;;;2.10;99.90;;;;;;5017182;28;20120;-70
2021/04/12 05:48:40;;;;;;;19.40;17.50;;;2.00;99.90;;;;;;5017769;28;20107;-71
2021/04/12 05:51:36;;;;;;;20.73;18.45;;;2.10;99.90;;;;;;5019762;28;20022;-71
2021/04/12 05:54:05;;;;;;;21.25;18.95;;;2.20;99.90;;;;;;5021722;28;20037;-70
2021/04/12 05:56:39;;;;;;;20.25;18.10;;;2.20;99.90;;;;;;5022013;28;20549;-70
2021/04/12 05:59:24;;;;;;;22.45;19.20;;;2.20;99.90;;;;;;5040558;28;20418;-70
2021/04/12 06:02:17;;;;;;;21.92;19.60;;;2.20;99.90;;;;;;5019277;28;20488;-70
2021/04/12 06:04:55;;;;;;;20.73;18.52;;;2.30;99.90;;;;;;5027199;28;20049;-70
2021/04/12 06:07:45;;;;;;;20.58;18.38;;;2.50;99.90;;;;;;5024797;28;20056;-71
2021/04/12 06:10:38;;;;;;;24.30;20.92;;;2.50;99.90;;;;;;5021505;28;20021;-71
2021/04/12 06:13:33;;;;;;;21.08;18.88;;;2.40;99.90;;;;;;5018114;28;20028;-71
2021/04/12 06:16:28;;;;;;;24.67;22.17;;;2.30;99.90;;;;;;5021902;28;20036;-71
2021/04/12 06:19:05;;;;;;;21.70;19.52;;;2.50;99.90;;;;;;5035954;28;20488;-71
2021/04/12 06:22:06;;;;;;;22.45;20.02;;;2.60;99.90;;;;;;5021183;28;20022;-71
2021/04/12 06:24:47;;;;;;;21.80;19.52;;;2.60;99.90;;;;;;5017651;28;20052;-71
2021/04/12 06:27:38;;;;;;;21.48;19.17;;;2.70;99.90;;;;;;5032527;28;20101;-71
2021/04/12 06:30:22;;;;;;;21.55;19.25;;;2.60;99.90;;;;;;5029333;28;20159;-71
2021/04/12 06:32:48;;;;;;;20.70;18.55;;;2.60;99.90;;;;;;5026137;28;20022;-71
2021/04/12 06:35:38;;;;;;;20.08;18.00;;;2.60;99.90;;;;;;5017998;28;20041;-71
2021/04/12 06:38:31;;;;;;;19.67;17.67;;;2.80;99.90;;;;;;5034633;28;20025;-72
2021/04/12 06:41:18;;;;;;;18.77;16.77;;;2.90;99.90;;;;;;5024144;28;20025;-71
2021/04/12 06:44:10;;;;;;;20.80;18.75;;;2.90;99.90;;;;;;5021486;28;20108;-71
2021/04/12 06:47:07;;;;;;;17.83;15.95;;;3.00;99.90;;;;;;5023611;28;20025;-71
2021/04/12 06:49:51;;;;;;;;;;;3.10;99.90;;;;;;5042860;28;20097;-71
2021/04/12 06:52:56;;;;;;;17.52;15.75;;;3.10;99.90;;;;;;5023460;28;19909;-71
2021/04/12 06:55:23;;;;;;;18.60;16.63;;;3.10;99.90;;;;;;5022223;28;20045;-71
2021/04/12 06:58:15;;;;;;;18.27;16.33;;;3.00;99.90;;;;;;5021056;28;20084;-72
2021/04/12 07:01:01;;;;;;;16.73;14.98;;;3.00;99.90;;;;;;5036409;28;20070;-71
2021/04/12 07:04:08;;;;;;;15.13;13.73;;;3.10;99.90;;;;;;5020368;28;20503;-71
2021/04/12 07:06:59;;;;;;;15.52;14.00;;;3.10;99.90;;;;;;5025878;28;20052;-71
2021/04/12 07:09:49;;;;;;;15.70;14.00;;;3.10;99.90;;;;;;5041092;28;20391;-71
2021/04/12 07:12:57;;;;;;;15.30;13.48;;;3.10;99.90;;;;;;5042373;28;20028;-72
2021/04/12 07:16:01;;;;;;;13.55;11.68;;;3.20;99.90;;;;;;5036435;28;20539;-71
2021/04/12 07:18:35;;;;;;;12.25;10.80;;;3.20;99.90;;;;;;5034024;28;20029;-71
2021/04/12 07:21:22;;;;;;;12.73;11.55;;;3.40;99.90;;;;;;5032564;28;20026;-71
2021/04/12 07:24:24;;;;;;;12.30;10.70;;;3.50;99.90;;;;;;5014614;28;20080;-70
2021/04/12 07:27:15;;;;;;;12.02;10.82;;;3.50;99.90;;;;;;5021406;28;20080;-71
2021/04/12 07:30:09;;;;;;;13.05;11.75;;;3.40;99.90;;;;;;5022831;28;20101;-70
2021/04/12 07:33:02;;;;;;;12.13;10.93;;;3.20;99.90;;;;;;5047667;28;20501;-72
2021/04/12 07:36:09;;;;;;;11.73;10.40;;;3.20;99.90;;;;;;5020549;28;20025;-72
2021/04/12 07:39:16;;;;;;;12.38;11.02;;;3.40;99.90;;;;;;5013424;28;20038;-71
2021/04/12 07:42:17;;;;;;;11.02;9.93;;;3.40;99.90;;;;;;5005646;28;20061;-72
2021/04/12 07:45:22;;;;;;;10.15;9.25;;;3.30;99.90;;;;;;5021843;28;20456;-71
2021/04/12 07:48:03;;;;;;;12.73;11.43;;;3.30;99.90;;;;;;5037794;28;20075;-72
2021/04/12 07:51:06;;;;;;;9.73;8.82;;;3.20;99.90;;;;;;5021228;28;20488;-72
2021/04/12 07:54:09;;;;;;;9.95;9.05;;;3.10;99.90;;;;;;5025633;28;20030;-73
2021/04/12 07:56:37;;;;;;;12.57;8.73;;;3.30;99.90;;;;;;5034776;28;20092;-72
2021/04/12 07:59:40;;;;;;;10.25;9.05;;;3.40;99.90;;;;;;5031153;28;20033;-72
2021/04/12 08:02:43;;;;;;;10.23;9.15;;;3.60;99.90;;;;;;5022643;28;20083;-72
2021/04/12 08:05:46;;;;;;;9.70;8.80;;;3.60;99.90;;;;;;4999865;28;20041;-72
2021/04/12 08:08:30;;;;;;;10.52;9.45;;;3.60;99.90;;;;;;5027583;28;20457;-72
2021/04/12 08:11:41;;;;;;;9.98;8.98;;;3.60;99.90;;;;;;5025545;28;20029;-73
2021/04/12 08:14:55;;;;;;;9.85;8.80;;;3.80;99.90;;;;;;5012122;28;20570;-73
2021/04/12 08:17:45;;;;;;;7.82;7.05;;;4.00;99.90;;;;;;5027004;28;20514;-73
2021/04/12 08:20:29;;;;;;;6.97;6.28;;;3.90;99.90;;;;;;5025001;28;20014;-72
2021/04/12 08:23:28;;;;;;;7.78;6.97;;;3.90;99.90;;;;;;5020577;28;20099;-73
2021/04/12 08:26:11;;;;;;;8.23;7.47;;;3.80;99.90;;;;;;5009701;28;20037;-73
2021/04/12 08:29:09;;;;;;;8.25;7.50;;;4.00;99.90;;;;;;5019749;28;20026;-72
2021/04/12 08:32:11;;;;;;;7.60;6.82;;;3.80;99.90;;;;;;5014084;28;20050;-72
2021/04/12 08:34:37;;;;;;;8.55;6.85;;;3.70;99.90;;;;;;5033010;28;20112;-72
2021/04/12 08:37:39;;;;;;;7.43;6.82;;;3.80;99.90;;;;;;5033194;28;20456;-72
2021/04/12 08:40:23;;;;;;;7.70;6.47;;;3.80;99.90;;;;;;5026428;28;20484;-73
2021/04/12 08:42:54;;;;;;;6.97;6.30;;;4.00;99.90;;;;;;5023615;28;20036;-72
2021/04/12 08:45:47;;;;;;;6.60;6.00;;;4.00;99.90;;;;;;5032638;28;20053;-72
2021/04/12 08:48:48;;;;;;;7.63;6.32;;;3.90;99.90;;;;;;5018247;28;20400;-72
2021/04/12 08:51:33;;;;;;;6.65;6.05;;;3.90;99.90;;;;;;5019860;28;20029;-71
2021/04/12 08:54:17;;;;;;;7.50;5.95;;;4.00;99.90;;;;;;5021554;28;20074;-72
2021/04/12 08:57:04;;;;;;;6.78;6.13;;;3.90;99.90;;;;;;5018021;28;20092;-72
2021/04/12 09:00:02;;;;;;;6.30;5.70;;;3.90;99.90;;;;;;5017527;28;20121;-72
2021/04/12 09:02:49;;;;;;;5.80;5.30;;;4.00;99.90;;;;;;5020493;28;20061;-73
2021/04/12 09:05:37;;;;;;;6.50;5.90;;;4.00;99.90;;;;;;5020946;28;20040;-71
2021/04/12 09:08:40;;;;;;;7.70;7.00;;;3.80;99.90;;;;;;5019178;28;20018;-72
2021/04/12 09:12:01;;;;;;;8.30;7.50;;;3.90;99.90;;;;;;5017792;28;20026;-73
2021/04/12 09:14:53;;;;;;;8.77;7.82;;;4.00;99.90;;;;;;5017613;28;20025;-72
2021/04/12 09:17:37;;;;;;;8.65;7.75;;;4.10;99.90;;;;;;5018950;28;20034;-72
2021/04/12 09:20:24;;;;;;;8.57;7.78;;;4.10;99.90;;;;;;5023144;28;20484;-73
2021/04/12 09:23:24;;;;;;;8.88;8.07;;;4.20;99.90;;;;;;5036489;28;20040;-72
2021/04/12 09:26:41;;;;;;;9.43;8.15;;;4.20;99.90;;;;;;5035178;28;20028;-71
2021/04/12 09:29:26;;;;;;;8.57;7.50;;;4.20;99.90;;;;;;5006674;28;20068;-71
2021/04/12 09:32:03;;;;;;;8.13;7.32;;;4.00;99.90;;;;;;5032127;28;20057;-71
2021/04/12 09:35:11;;;;;;;8.23;7.03;;;4.10;99.90;;;;;;5027600;28;20433;-71
2021/04/12 09:37:48;;;;;;;9.05;7.80;;;4.10;99.90;;;;;;5018801;28;20029;-70
2021/04/12 09:40:26;;;;;;;8.13;6.75;;;4.20;99.90;;;;;;5031915;28;20034;-71
2021/04/12 09:43:31;;;;;;;7.65;6.85;;;4.30;99.90;;;;;;5040295;28;20025;-71
2021/04/12 09:46:34;;;;;;;8.73;7.32;;;4.60;99.90;;;;;;5021664;28;20484;-71
2021/04/12 09:49:34;;;;;;;7.18;6.47;;;4.60;99.90;;;;;;5039684;28;20021;-71
2021/04/12 09:52:23;;;;;;;8.70;7.10;;;4.30;99.90;;;;;;5019119;28;20068;-70
2021/04/12 09:55:00;;;;;;;6.75;6.10;;;4.50;99.90;;;;;;5042878;28;20384;-72
2021/04/12 09:57:47;;;;;;;8.43;5.85;;;4.60;99.90;;;;;;5022020;28;20029;-71
2021/04/12 10:00:30;;;;;;;;;;;4.40;99.90;;;;;;5032571;28;20531;-71
2021/04/12 10:03:33;;;;;;;7.53;6.72;;;4.40;99.90;;;;;;5046463;28;19905;-71
2021/04/12 10:06:38;;;;;;;7.22;6.20;;;4.40;99.90;;;;;;5035643;28;20029;-70
2021/04/12 10:09:36;;;;;;;6.28;5.35;;;4.40;99.90;;;;;;5038100;28;20036;-71
2021/04/12 10:12:30;;;;;;;6.55;5.82;;;4.50;99.90;;;;;;5042198;28;20026;-71
2021/04/12 10:15:21;;;;;;;6.47;5.88;;;4.60;99.90;;;;;;5045308;28;20394;-71
2021/04/12 10:18:19;;;;;;;6.75;5.28;;;4.60;99.90;;;;;;5049062;28;20009;-72
2021/04/12 10:20:50;;;;;;;5.60;5.07;;;4.50;99.90;;;;;;5045070;28;20379;-72
2021/04/12 10:23:27;;;;;;;5.88;5.10;;;4.40;99.90;;;;;;5045994;28;20587;-72
2021/04/12 10:26:14;;;;;;;6.40;5.50;;;4.70;99.90;;;;;;5046634;28;20072;-72
2021/04/12 10:28:50;;;;;;;6.05;4.90;;;4.80;99.90;;;;;;5042602;28;20040;-72
2021/04/12 10:31:21;;;;;;;6.18;5.30;;;4.80;99.90;;;;;;5047076;28;20013;-72
2021/04/12 10:34:14;;;;;;;5.63;5.13;;;5.00;99.90;;;;;;5049876;28;20114;-72
2021/04/12 10:37:04;;;;;;;6.20;5.32;;;5.10;99.90;;;;;;5032490;28;20028;-71
2021/04/12 10:39:34;;;;;;;5.57;4.88;;;5.10;99.90;;;;;;5050691;28;20044;-72
2021/04/12 10:42:17;;;;;;;5.05;4.55;;;5.10;99.90;;;;;;5046298;28;20391;-72
2021/04/12 10:45:09;;;;;;;4.70;4.30;;;5.20;99.90;;;;;;5033554;28;20383;-71
2021/04/12 10:48:00;;;;;;;5.70;4.90;;;5.30;99.90;;;;;;5039414;28;20539;-71
2021/04/12 10:50:30;;;;;;;4.88;4.47;;;5.40;99.90;;;;;;5042975;28;20037;-72
2021/04/12 10:53:34;;;;;;;4.82;4.43;;;5.40;99.90;;;;;;5050550;28;20013;-72
2021/04/12 10:56:13;;;;;;;6.07;4.53;;;5.10;99.90;;;;;;5044835;28;20017;-72
2021/04/12 10:59:20;;;;;;;5.65;3.92;;;5.00;99.90;;;;;;5040481;28;20044;-71
2021/04/12 11:02:24;;;;;;;4.28;3.88;;;4.60;99.90;;;;;;5048345;28;20104;-71
2021/04/12 11:04:59;;;;;;;3.78;3.38;;;4.70;99.90;;;;;;5033313;28;20069;-72
2021/04/12 11:08:05;;;;;;;5.70;4.05;;;4.70;99.90;;;;;;5048793;28;20025;-72
2021/04/12 11:10:42;;;;;;;3.88;2.95;;;4.60;99.90;;;;;;5046093;28;20020;-71
2021/04/12 11:13:11;;;;;;;3.22;2.92;;;4.50;99.90;;;;;;5043002;28;20013;-71
2021/04/12 11:15:55;;;;;;;5.25;3.03;;;4.50;99.90;;;;;;5048929;28;20021;-72
2021/04/12 11:19:01;;;;;;;3.33;3.03;;;4.70;99.90;;;;;;5045983;28;20030;-71
2021/04/12 11:21:35;;;;;;;3.42;3.13;;;4.80;99.90;;;;;;5043866;28;20029;-72
2021/04/12 11:24:25;;;;;;;4.03;3.20;;;4.80;99.90;;;;;;5048170;28;20037;-72
2021/04/12 11:27:37;;;;;;;3.22;2.92;;;5.20;99.90;;;;;;5043185;28;20021;-72
2021/04/12 11:30:24;;;;;;;3.78;3.30;;;5.50;99.90;;;;;;5050590;28;20083;-71
2021/04/12 11:33:20;;;;;;;5.03;3.10;;;5.70;99.90;;;;;;5033819;28;20527;-71
2021/04/12 11:35:51;;;;;;;2.60;2.40;;;5.70;99.90;;;;;;5033951;28;20029;-71
2021/04/12 11:38:21;;;;;;;3.17;2.65;;;5.60;99.90;;;;;;5034189;28;20092;-72
2021/04/12 11:41:02;;;;;;;3.60;2.83;;;5.30;99.90;;;;;;5021362;28;20029;-72
2021/04/12 11:43:34;;;;;;;3.20;2.33;;;5.50;99.90;;;;;;5036121;28;20034;-71
2021/04/12 11:46:00;;;;;;;2.67;2.47;;;5.30;99.90;;;;;;5043657;28;20048;-71
2021/04/12 11:48:50;;;;;;;3.42;2.50;;;5.40;99.90;;;;;;5022979;28;20025;-72
2021/04/12 11:51:33;;;;;;;2.20;2.00;;;5.50;99.90;;;;;;5030741;28;20040;-71
2021/04/12 11:54:02;;;;;;;2.25;1.83;;;5.50;99.90;;;;;;5042513;28;20455;-72
2021/04/12 11:56:34;;;;;;;2.38;2.08;;;5.60;99.90;;;;;;5037576;28;20207;-72
2021/04/12 11:59:19;;;;;;;2.72;2.13;;;5.20;99.90;;;;;;5033801;28;20060;-72
2021/04/12 12:02:05;;;;;;;2.22;1.92;;;5.20;99.90;;;;;;5032416;28;20035;-71
2021/04/12 12:04:34;;;;;;;3.10;2.13;;;5.50;99.90;;;;;;5034007;28;20025;-72
2021/04/12 12:07:30;;;;;;;2.65;1.92;;;5.50;99.90;;;;;;5037585;28;20033;-72
2021/04/12 12:10:32;;;;;;;2.63;2.17;;;5.40;99.90;;;;;;5033277;28;20075;-72
2021/04/12 12:13:24;;;;;;;2.53;2.05;;;5.60;99.90;;;;;;5031785;28;20515;-72
2021/04/12 12:16:33;;;;;;;3.20;2.33;;;5.70;99.90;;;;;;5023108;28;20040;-72
2021/04/12 12:19:04;;;;;;;4.07;2.30;;;5.60;99.90;;;;;;4982684;28;20265;-72
2021/04/12 12:21:36;;;;;;;4.10;2.30;;;5.60;99.90;;;;;;4990797;28;20149;-71
2021/04/12 12:24:11;;;;;;;5.70;2.20;;;5.70;99.90;;;;;;5005292;28;20069;-72
2021/04/12 12:26:44;;;;;;;3.08;2.47;;;5.50;99.90;;;;;;5033007;28;20021;-71
2021/04/12 12:29:22;;;;;;;2.22;2.03;;;5.40;99.90;;;;;;5033039;28;20033;-72
2021/04/12 12:32:06;;;;;;;3.03;2.08;;;5.20;99.90;;;;;;5046202;28;20389;-71
2021/04/12 12:35:00;;;;;;;5.20;2.38;;;5.40;99.90;;;;;;5029981;28;20391;-72
2021/04/12 12:37:59;;;;;;;2.63;2.42;;;5.40;99.90;;;;;;5033303;28;20029;-71
2021/04/12 12:40:33;;;;;;;2.50;2.30;;;5.20;99.90;;;;;;5046290;28;20105;-72
2021/04/12 12:43:08;;;;;;;2.40;2.20;;;5.60;99.90;;;;;;5032921;28;20447;-72
2021/04/12 12:45:41;;;;;;;2.72;2.00;;;5.70;99.90;;;;;;5031210;28;20492;-71
2021/04/12 12:48:23;;;;;;;2.47;2.28;;;5.60;99.90;;;;;;5018131;28;20030;-72
2021/04/12 12:50:57;;;;;;;5.43;2.33;;;5.70;99.90;;;;;;5032644;28;20020;-72
2021/04/12 12:53:29;;;;;;;3.97;2.35;;;5.70;99.90;;;;;;5032290;28;20024;-72
2021/04/12 12:56:20;;;;;;;4.43;2.28;;;5.50;99.90;;;;;;5032319;28;20555;-72
2021/04/12 12:59:25;;;;;;;7.88;2.50;;;5.30;99.90;;;;;;5028892;28;20037;-72
2021/04/12 13:01:53;;;;;;;2.40;2.20;;;5.30;99.90;;;;;;5018367;28;20021;-72
2021/04/12 13:04:22;;;;;;;2.58;2.20;;;5.10;99.90;;;;;;5030843;28;20079;-72
2021/04/12 13:06:51;;;;;;;2.90;2.40;;;5.30;99.90;;;;;;5032225;28;20025;-72
2021/04/12 13:09:30;;;;;;;2.53;2.33;;;5.50;99.90;;;;;;5031585;28;20430;-72
2021/04/12 13:12:11;;;;;;;2.60;2.10;;;5.50;99.90;;;;;;5022067;28;20025;-72
2021/04/12 13:14:47;;;;;;;2.97;2.20;;;5.50;99.90;;;;;;5031899;28;20077;-71
2021/04/12 13:17:33;;;;;;;2.60;2.40;;;5.40;99.90;;;;;;5031691;28;20476;-72
2021/04/12 13:20:10;;;;;;;3.58;2.78;;;5.40;99.90;;;;;;5032208;28;20052;-72
2021/04/12 13:22:39;;;;;;;3.08;2.20;;;5.40;99.90;;;;;;5031876;28;20041;-72
2021/04/12 13:25:57;;;;;;;3.88;2.50;;;5.60;99.90;;;;;;5021068;28;20033;-71
2021/04/12 13:28:31;;;;;;;3.38;2.45;;;5.60;99.90;;;;;;5011664;28;20421;-72
2021/04/12 13:31:02;;;;;;;3.35;2.42;;;5.80;99.90;;;;;;5018820;28;20033;-71
2021/04/12 13:33:47;;;;;;;2.42;2.15;;;6.00;99.90;;;;;;5031631;28;20036;-71
2021/04/12 13:36:30;;;;;;;4.03;2.53;;;6.20;99.90;;;;;;5030889;28;20029;-72
2021/04/12 13:39:04;;;;;;;5.82;2.20;;;5.90;99.90;;;;;;5013920;28;20037;-71
2021/04/12 13:41:36;;;;;;;3.22;2.42;;;5.90;99.90;;;;;;5024812;28;20026;-72
2021/04/12 13:44:10;;;;;;;2.70;2.40;;;6.30;99.90;;;;;;5038761;28;20489;-72
2021/04/12 13:47:13;;;;;;;2.90;2.08;;;6.50;99.90;;;;;;5036240;28;20597;-71
2021/04/12 13:49:49;;;;;;;2.60;2.40;;;6.90;99.90;;;;;;5043623;28;20090;-71
2021/04/12 13:52:25;;;;;;;2.92;2.13;;;7.00;99.90;;;;;;5027832;28;20021;-71
2021/04/12 13:55:08;;;;;;;3.37;2.50;;;6.90;99.90;;;;;;5034238;28;20021;-72
2021/04/12 13:57:39;;;;;;;3.45;2.20;;;7.00;99.90;;;;;;5020100;28;20026;-71
2021/04/12 14:00:26;;;;;;;4.68;2.17;;;7.10;99.90;;;;;;5030599;28;20049;-72
2021/04/12 14:02:54;;;;;;;;;;;7.50;99.90;;;;;;5032375;28;20071;-71
2021/04/12 14:05:28;;;;;;;3.25;2.17;;;8.10;99.90;;;;;;5029882;28;20355;-72
2021/04/12 14:08:15;;;;;;;4.70;2.70;;;8.60;99.90;;;;;;5018504;28;20527;-72
2021/04/12 14:10:59;;;;;;;2.65;2.25;;;9.00;99.90;;;;;;5017877;28;20084;-72
2021/04/12 14:13:45;;;;;;;2.78;2.10;;;9.90;99.90;;;;;;5020130;28;20024;-72
2021/04/12 14:16:24;;;;;;;2.00;1.80;;;9.10;99.90;;;;;;5031262;28;20017;-70
2021/04/12 14:19:12;;;;;;;2.47;2.20;;;9.10;99.90;;;;;;5031544;28;20026;-72
2021/04/12 14:21:41;;;;;;;2.03;1.70;;;7.80;99.90;;;;;;5031384;28;20108;-71
2021/04/12 14:24:19;;;;;;;4.47;2.13;;;7.30;99.90;;;;;;5029620;28;20036;-73
2021/04/12 14:26:48;;;;;;;2.70;1.73;;;7.50;99.90;;;;;;5019055;28;20129;-72
2021/04/12 14:29:22;;;;;;;2.53;1.90;;;7.40;99.90;;;;;;5034694;28;20475;-72
2021/04/12 14:31:49;;;;;;;4.13;2.00;;;7.50;99.90;;;;;;5038225;28;20089;-72
2021/04/12 14:34:26;;;;;;;3.00;1.80;;;7.30;99.90;;;;;;5031041;28;20033;-72
2021/04/12 14:36:51;;;;;;;2.60;2.00;;;7.40;99.90;;;;;;5029900;28;20025;-72